New Lisbon, NY

2:27 PM EDT on August 22, 2014 (GMT -0400)
KNYSHERB6 | Change Station
CLOSE
Current Station
Personal Weather Station
Location: Sherburne, NY
Elevation: 1880 ft
Nearby Weather Stations

Elev 1880 ft 42.67 °N, 75.41 °W | Updated 4 minutes ago

Mostly Cloudy
Mostly Cloudy
70.1 °F
Feels Like 71 °F
N
3.0
Wind Variable Wind from ESE
Gusts 10.0 mph

Today
High -- | Low -- °F
--% Chance of Precip.
Yesterday
High -- | Low -- °F
Precip. -- in
6:15 AM 7:52 PM
Waning Crescent, 7% visible
Pressure 30.02 in
Visibility 10.0 miles
Clouds Scattered Clouds 2100 ft
Scattered Clouds 2800 ft
Mostly Cloudy 6500 ft
Heat Index 71 °F
Dew Point 64 °F
Humidity 81%
Rainfall 0.00 in
Snow Depth Not available.
UV 5 out of 12
Pollen 7.60 out of 12
Ozone Good
PM2.5 Moderate
Flu Activity Not available.
SPECI KBGM 221812Z VRB03KT 10SM SCT021 SCT028 BKN065 24/18 A3002 RMK AO2

More Conditions Fewer Conditions

Pressure 30.02 in
Visibility 10.0 miles
Clouds Scattered Clouds 2100 ft
Scattered Clouds 2800 ft
Mostly Cloudy 6500 ft
Heat Index 71 °F
Dew Point 64 °F
Humidity 81%
Rainfall 0.00 in
Snow Depth Not available.
UV 5 out of 12
Pollen 7.60 out of 12
Ozone Good
PM2.5 Moderate
Flu Activity Not available.
SPECI KBGM 221812Z VRB03KT 10SM SCT021 SCT028 BKN065 24/18 A3002 RMK AO2

More Conditions Fewer Conditions

Nowcast | as of 2:03 PM EDT on August 22, 2014

At 3 PM...cloudy with scattered thunderstorms with a chance of showers. Temperature around 73. Southeast winds around 5 mph. At 5 PM...cloudy with scattered thunderstorms with a chance of showers. Temperature around 73. East winds around 5 mph. At 7 PM...cloudy with scattered showers and thunderstorms. Temperature around 71. Southeast winds around 5 mph.

×

10-Day Weather Forecast

Almanac

Astronomy

Aug. 22, 2014 Rise Set
Actual Time 6:15 AM EDT 7:52 PM EDT
Civil Twilight 5:45 AM EDT 8:21 PM EDT
Nautical Twilight 5:09 AM EDT 8:57 PM EDT
Astronomical Twilight 4:31 AM EDT 9:36 PM EDT
Moon 3:34 AM EDT 6:00 PM EDT
Length of Visible Light 14h 35m
Length of Day
13h 36m
Tomorrow will be 2m 40s shorter.
Waning Crescent, 7% of the Moon is Illuminated
Today
Waning Crescent
Aug 25
New
Sep 2
First Quarter
Sep 8
Full
Sep 15
Last Quarter

Today's Extremes

State Highs State Lows

Community

WunderPhotos

Upload Photos

1,746,215 photos uploaded!

WunderBlogs® & News

Nearby

Air Quality

  Air Quality AQ Index Pollutant
Yesterday Good
PM2.5
Yesterday Good
OZONE
Current Moderate
PM2.5
Current Good
OZONE
Friday Good
OZONE
Friday Good
PM2.5
Saturday Good
OZONE
Sunday Good
OZONE
Monday Good
OZONE

Snow Depth

Station Depth Elevation
No new snow has been reported.

Earthquake Activity

City Distance Mag. Time & Date
No recent earthquake activity has been reported nearby.
Minimum magnitude displayed is 2.5.

Coastal Water Temperatures

Place Temperature
No Stations Reporting

Nearby Weather Stations